Flight Track Log - Related Links

Times and Time Zones

All times are in EDT time to prevent confusion due to time zone crossing. See the ASQ4578 flight status page for this flight to view local times or setup timezone preferences in your user account.

Time Position Orientation Groundspeed Altitude Reporting Facility
EDT Latitude Longitude Course Direction KTS MPH feet Rate Location/Type
Fri 08:12:22 PM 41.2892 -95.8908 178° South 173 199 1,600  Level Minneapolis Center
Fri 08:12:59 PM 41.2600 -95.8894 187° South 190 219 2,900 1,981 Climbing Minneapolis Center
Fri 08:14:05 PM 41.1911 -95.9006 184° South 226 260 5,000 2,115 Climbing Minneapolis Center
Fri 08:15:18 PM 41.1056 -95.9083 184° South 263 303 7,800 2,075 Climbing Minneapolis Center
Fri 08:16:18 PM 41.0450 -95.9142 185° South 275 316 9,600 1,350 Climbing Minneapolis Center
Fri 08:17:18 PM 40.9533 -95.9242 185° South 284 327 10,500 1,050 Climbing Minneapolis Center
Fri 08:18:18 PM 40.8617 -95.9342 200° South 315 362 11,700 1,200 Climbing Minneapolis Center
Fri 08:19:18 PM 40.7689 -95.9797 204° Southwest 334 384 12,900 1,200 Climbing Minneapolis Center
Fri 08:20:18 PM 40.6761 -96.0336 204° Southwest 354 407 14,100 1,150 Climbing Minneapolis Center
Fri 08:21:18 PM 40.5833 -96.0869 203° Southwest 363 418 15,200 1,250 Climbing Minneapolis Center
Fri 08:22:18 PM 40.4864 -96.1400 202° Southwest 375 432 16,600 1,345 Climbing Minneapolis Center
Fri 08:24:12 PM 40.2936 -96.2439 203° Southwest 365 420 19,100 1,172 Climbing Kansas City Center
Fri 08:25:12 PM 40.2011 -96.2958 202° Southwest 386 444 20,000 1,000 Climbing Kansas City Center
Fri 08:26:12 PM 40.0981 -96.3503 203° Southwest 403 464 21,100 1,250 Climbing Kansas City Center
Fri 08:27:12 PM 39.9847 -96.4122 203° Southwest 409 471 22,500 1,289 Climbing Kansas City Center
Fri 08:28:13 PM 39.8817 -96.4692 203° Southwest 409 471 23,700 1,200 Climbing Kansas City Center
Fri 08:29:12 PM 39.7872 -96.5206 201° Southwest 409 471 24,900 1,210 Climbing Kansas City Center
Fri 08:30:12 PM 39.6819 -96.5742 203° Southwest 409 471 26,100 1,300 Climbing Kansas City Center
Fri 08:31:12 PM 39.5683 -96.6381 202° Southwest 409 471 27,500 1,300 Climbing Kansas City Center
Fri 08:32:12 PM 39.4631 -96.6942 202° Southwest 414 476 28,700 1,200 Climbing Kansas City Center
Fri 08:33:12 PM 39.3558 -96.7500 204° Southwest 414 476 29,900 1,300 Climbing Kansas City Center
Fri 08:34:12 PM 39.2758 -96.7958 203° Southwest 409 471 31,300 1,550 Climbing Kansas City Center
Fri 08:35:12 PM 39.1536 -96.8617 202° Southwest 403 464 33,000 1,250 Climbing Kansas City Center
Fri 08:36:12 PM 39.0547 -96.9119 202° Southwest 404 465 33,800 850 Climbing Kansas City Center
Fri 08:37:12 PM 38.9367 -96.9747 201° Southwest 418 481 34,700 800 Climbing Kansas City Center
Fri 08:38:12 PM 38.8356 -97.0244 202° Southwest 429 494 35,400 650 Climbing Kansas City Center
Fri 08:39:12 PM 38.7111 -97.0894 202° Southwest 439 505 36,000 300 Climbing Kansas City Center
Fri 08:40:12 PM 38.5950 -97.1492 203° Southwest 448 516 36,000  Level Kansas City Center
Fri 08:41:12 PM 38.4728 -97.2139 201° Southwest 463 533 36,000  Level Kansas City Center
Fri 08:42:12 PM 38.3736 -97.2631 202° Southwest 470 541 36,000  Level Kansas City Center
Fri 08:43:12 PM 38.2406 -97.3322 202° Southwest 476 548 36,000  Level Kansas City Center
Fri 08:44:12 PM 38.1203 -97.3936 201° Southwest 476 548 36,000  Level Kansas City Center
Fri 08:45:12 PM 37.9978 -97.4547 203° Southwest 481 554 36,000  Level Kansas City Center
Fri 08:46:12 PM 37.8667 -97.5258 203° Southwest 476 548 36,000  Level Kansas City Center
Fri 08:47:12 PM 37.7419 -97.5919 199° South 481 554 36,000  Level Kansas City Center
Fri 08:48:12 PM 37.6239 -97.6419 203° Southwest 487 560 36,000  Level Kansas City Center
Fri 08:49:12 PM 37.5033 -97.7053 201° Southwest 487 560 36,000  Level Kansas City Center
Fri 08:50:12 PM 37.3806 -97.7653 183° South 481 554 36,000  Level Kansas City Center
Fri 08:51:12 PM 37.2531 -97.7728 176° South 454 522 36,000  Level Kansas City Center
Fri 08:52:12 PM 37.1242 -97.7622 176° South 459 528 36,000  Level Kansas City Center
Fri 08:53:12 PM 36.9931 -97.7514 176° South 464 534 36,000  Level Kansas City Center
Fri 08:54:12 PM 36.8617 -97.7406 175° South 471 542 36,000  Level Kansas City Center
Fri 08:55:12 PM 36.7308 -97.7275 177° South 476 548 36,000  Level Kansas City Center
Fri 08:56:12 PM 36.5975 -97.7192 175° South 476 548 36,000  Level Kansas City Center
Fri 08:57:12 PM 36.4603 -97.7033 176° South 471 542 36,000  Level Kansas City Center
Fri 08:58:45 PM 36.2692 -97.6864 176° South 462 532 36,000  Level Fort Worth Center
Fri 08:59:45 PM 36.1419 -97.6758 176° South 462 532 36,000  Level Fort Worth Center
Fri 09:00:45 PM 36.0147 -97.6650 176° South 462 532 36,000  Level Fort Worth Center
Fri 09:01:45 PM 35.8856 -97.6544 177° South 462 532 36,000  Level Fort Worth Center
Fri 09:02:45 PM 35.7500 -97.6464 176° South 462 532 36,000  Level Fort Worth Center
Fri 09:03:45 PM 35.6269 -97.6358 176° South 457 526 36,000  Level Fort Worth Center
Fri 09:04:45 PM 35.5061 -97.6253 177° South 451 519 36,000  Level Fort Worth Center
Fri 09:05:45 PM 35.3914 -97.6172 168° South 432 497 36,000  Level Fort Worth Center
Fri 09:06:45 PM 35.2767 -97.5864 161° South 427 491 36,000 200 Level Fort Worth Center
Fri 09:07:45 PM 35.1600 -97.5381 162° South 427 491 36,400 500 Climbing Fort Worth Center
Fri 09:08:45 PM 35.0411 -97.4922 162° South 440 506 37,000 300 Climbing Fort Worth Center
Fri 09:09:45 PM 34.9244 -97.4464 162° South 440 506 37,000  Level Fort Worth Center
Fri 09:10:45 PM 34.8117 -97.4008 160° South 440 506 37,000  Level Fort Worth Center
Fri 09:11:45 PM 34.7033 -97.3531 149° Southeast 433 498 37,000  Level Fort Worth Center
Fri 09:12:45 PM 34.6114 -97.2872 141° Southeast 406 467 37,000  Level Fort Worth Center
Fri 09:13:45 PM 34.5258 -97.2042 147° Southeast 395 455 37,000  Level Fort Worth Center
Fri 09:14:45 PM 34.4442 -97.1389 144° Southeast 395 455 37,000  Level Fort Worth Center
Fri 09:15:45 PM 34.3564 -97.0614 147° Southeast 389 448 37,000  Level Fort Worth Center
Fri 09:16:45 PM 34.2644 -96.9889 159° South 395 455 37,000  Level Fort Worth Center
Fri 09:17:45 PM 34.1558 -96.9392 158° South 400 460 37,000  Level Fort Worth Center
Fri 09:18:45 PM 34.0511 -96.8869 158° South 386 444 37,000  Level Fort Worth Center
Fri 09:19:45 PM 33.9467 -96.8350 168° South 386 444 37,000  Level Fort Worth Center
Fri 09:20:45 PM 33.8400 -96.8083 188° South 397 457 37,000  Level Fort Worth Center
Fri 09:21:45 PM 33.7317 -96.8264 185° South 388 447 37,000  Level Fort Worth Center
Fri 09:22:45 PM 33.6211 -96.8372 184° South 400 460 37,000  Level Fort Worth Center
Fri 09:23:45 PM 33.5272 -96.8453 184° South 395 455 37,000  Level Fort Worth Center
Fri 09:24:45 PM 33.4292 -96.8533 185° South 375 432 37,000  Level Fort Worth Center
Fri 09:25:45 PM 33.3311 -96.8639 181° South 358 412 37,000  Level Fort Worth Center
Fri 09:26:45 PM 33.2225 -96.8672 166° South 377 434 37,000  Level Fort Worth Center
Fri 09:27:45 PM 33.1033 -96.8306 162° South 397 457 37,000  Level Fort Worth Center
Fri 09:28:45 PM 32.9864 -96.7844 171° South 431 496 37,000  Level Fort Worth Center
Fri 09:29:45 PM 32.8692 -96.7628 171° South 436 502 37,000  Level Fort Worth Center
Fri 09:30:45 PM 32.7564 -96.7414 172° South 422 486 37,000  Level Fort Worth Center
Fri 09:31:45 PM 32.6458 -96.7225 171° South 412 474 37,000  Level Fort Worth Center
Fri 09:32:45 PM 32.5369 -96.7011 171° South 407 468 37,000  Level Fort Worth Center
Fri 09:33:45 PM 32.4200 -96.6800 171° South 417 480 37,000  Level Fort Worth Center
Fri 09:34:45 PM 32.3197 -96.6611 171° South 417 480 37,000  Level Fort Worth Center
Fri 09:35:45 PM 32.2067 -96.6400 171° South 412 474 37,000  Level Fort Worth Center
Fri 09:36:45 PM 32.0878 -96.6189 170° South 418 481 37,000 -500 Level Fort Worth Center
Fri 09:37:45 PM 31.9686 -96.5931 173° South 436 502 36,000 -1,500 Descending Fort Worth Center
Fri 09:38:45 PM 31.8347 -96.5747 171° South 436 502 34,000 -2,145 Descending Fort Worth Center
Fri 09:40:30 PM 31.6372 -96.5383 170° South 457 526 30,100 -1,818 Descending Houston Center
Fri 09:41:30 PM 31.5150 -96.5128 164° South 452 520 29,000 -550 Descending Houston Center
Fri 09:42:30 PM 31.3956 -96.4731 158° South 452 520 29,000 -500 Level Houston Center
Fri 09:43:30 PM 31.2706 -96.4136 149° Southeast 452 520 28,000 -1,700 Descending Houston Center
Fri 09:44:30 PM 31.1606 -96.3378 149° Southeast 452 520 25,600 -1,850 Descending Houston Center
Fri 09:45:30 PM 31.0464 -96.2575 151° Southeast 458 527 24,300 -1,900 Descending Houston Center
Fri 09:46:30 PM 30.9383 -96.1872 150° Southeast 457 526 21,800 -2,733 Descending Houston Center
Fri 09:48:30 PM 30.7444 -96.0578 151° Southeast 428 493 16,100 -2,800 Descending Houston Center
Fri 09:49:30 PM 30.6464 -95.9956 151° Southeast 415 478 13,400 -2,842 Descending Houston Center
Fri 09:50:05 PM 30.5831 -95.9542 150° Southeast 379 436 11,600 -2,451 Descending Houston Center
Fri 09:50:41 PM 30.5297 -95.9183 150° Southeast 365 420 10,500 -1,143 Descending Houston Center
Fri 09:51:29 PM 30.4725 -95.8797 162° South 366 421 10,000 -275 Descending Houston Center
Fri 09:52:30 PM 30.3983 -95.8525 169° South 321 369 10,000 -446 Level Houston Center
Fri 09:53:30 PM 30.3197 -95.8350 170° South 295 339 9,100 -950 Descending Houston Center
Fri 09:54:30 PM 30.2450 -95.8197 146° Southeast 290 334 8,100 -700 Descending Houston Center
Fri 09:55:30 PM 30.1839 -95.7717 124° Southeast 278 320 7,700 -850 Descending Houston Center
Fri 09:56:30 PM 30.1422 -95.7003 126° Southeast 262 302 6,400 -1,450 Descending Houston Center
Fri 09:57:30 PM 30.1022 -95.6364 126° Southeast 252 290 4,800 -1,513 Descending Houston Center
Fri 09:58:29 PM 30.0603 -95.5700 128° Southeast 252 290 3,400 -1,100 Descending Houston Center
Fri 09:59:30 PM 30.0203 -95.5108 120° Southeast 247 284 2,600 -793 Descending Houston Center
Fri 10:00:30 PM 29.9967 -95.4644 98° East 212 244 1,800 -650 Descending Houston Center
Fri 10:01:30 PM 29.9914 -95.4211 88° East 160 184 1,300 -600 Descending Houston Center
Fri 10:02:30 PM 29.9925 -95.3828 99° East 130 150 600 -496 Descending Houston Center
Fri 10:03:31 PM 29.9856 -95.3347 99° East 130 150 300 -295 Descending Houston Center

Login

Don't have an account? Register now (free) for customized features, flight alerts, and more!